PWSweather.com
Personal Weather Stations
Station Observations
SEVNO44
Sevno, PrimskovoSI 1276

SevnoPrimskovoSI 1276

Lat: 45.9796285, Lon: 14.924044999999978

Elevation: 1706.0368

Station Type: WS-2307

www.primskovo.eu/vreme

High Low Average
Temperature 67.8°F19.9°C 51.6°F10.9°C 57.4°F14.1°C
Dew Point 57.6°F14.2°C 49.3°F9.6°C 52.5°F11.4°C
Winds 8.1 mph 13.0 kmh Calm Calm 2.0 mph SE3.2 kmh SE
Wind Gusts 13.4 mph21.6 kmh -- 3.0 mph4.8 kmh
Humidity 94% 66% 84%
Pressure 30.03 in1016.9 mb 29.82 in1009.8 mb -
Precipitation 0.31 in7.9 mm - -
Hour Temp Dew Point Humidity Winds Wind Gusts Pressure Precip Precip Rate Daily Precip Total
12:00 AM 55.0°F12.8°C 53.1°F11.7°C 93% Calm Calm -- 29.87 in1011.5 mb 0.19 in4.8 mm 0.00 in0.0 mm 0.18 in4.6 mm
12:05 AM 54.9°F12.7°C 52.6°F11.4°C 92% 0.9 mph SSW1.4 kmh SSW 2.7 mph4.3 kmh 29.87 in1011.5 mb 0.16 in4.1 mm 0.00 in0.0 mm 0.18 in4.6 mm
12:10 AM 54.7°F12.6°C 52.4°F11.3°C 92% 1.6 mph S2.6 kmh S 2.7 mph4.3 kmh 29.87 in1011.5 mb 0.16 in4.1 mm 0.00 in0.0 mm 0.18 in4.6 mm
12:15 AM 54.7°F12.6°C 52.4°F11.3°C 92% 1.2 mph E1.9 kmh E 1.8 mph2.9 kmh 29.86 in1011.2 mb 0.16 in4.1 mm 0.00 in0.0 mm 0.18 in4.6 mm
12:20 AM 54.7°F12.6°C 52.4°F11.3°C 92% 1.0 mph NE1.6 kmh NE 1.3 mph2.1 kmh 29.86 in1011.2 mb 0.12 in3.0 mm 0.00 in0.0 mm 0.18 in4.6 mm
12:25 AM 54.7°F12.6°C 52.4°F11.3°C 92% 0.5 mph NNE0.8 kmh NNE 0.9 mph1.4 kmh 29.86 in1011.2 mb 0.12 in3.0 mm 0.00 in0.0 mm 0.18 in4.6 mm
12:30 AM 54.5°F12.5°C 52.2°F11.2°C 92% 0.3 mph N0.5 kmh N 0.9 mph1.4 kmh 29.85 in1010.8 mb 0.12 in3.0 mm 0.00 in0.0 mm 0.18 in4.6 mm
12:35 AM 54.3°F12.4°C 52.0°F11.1°C 92% 0.9 mph N1.4 kmh N 2.0 mph3.2 kmh 29.85 in1010.8 mb 0.10 in2.5 mm 0.00 in0.0 mm 0.18 in4.6 mm
12:37 AM 54.3°F12.4°C 52.0°F11.1°C 92% Calm Calm -- 29.85 in1010.8 mb 0.10 in2.5 mm 0.00 in0.0 mm 0.22 in5.6 mm
12:40 AM 54.3°F12.4°C 52.0°F11.1°C 92% 1.0 mph N1.6 kmh N 2.0 mph3.2 kmh 29.86 in1011.2 mb 0.06 in1.5 mm 0.00 in0.0 mm 0.18 in4.6 mm
12:45 AM 54.1°F12.3°C 51.9°F11.1°C 92% 0.9 mph N1.4 kmh N 2.0 mph3.2 kmh 29.86 in1011.2 mb 0.04 in1.0 mm 0.00 in0.0 mm 0.18 in4.6 mm
12:50 AM 54.1°F12.3°C 51.9°F11.1°C 92% 0.5 mph N0.8 kmh N 1.3 mph2.1 kmh 29.86 in1011.2 mb 0.02 in0.5 mm 0.00 in0.0 mm 0.18 in4.6 mm
12:55 AM 54.1°F12.3°C 51.9°F11.1°C 92% Calm Calm -- 29.87 in1011.5 mb 0.00 in0.0 mm 0.00 in0.0 mm 0.18 in4.6 mm
01:00 AM 54.1°F12.3°C 51.9°F11.1°C 92% Calm Calm -- 29.87 in1011.5 mb 0.00 in0.0 mm 0.00 in0.0 mm 0.18 in4.6 mm
01:05 AM 54.0°F12.2°C 51.7°F10.9°C 92% Calm Calm -- 29.87 in1011.5 mb 0.00 in0.0 mm 0.00 in0.0 mm 0.18 in4.6 mm
01:10 AM 53.8°F12.1°C 51.5°F10.8°C 92% 0.1 mph SSE0.2 kmh SSE 1.8 mph2.9 kmh 29.87 in1011.5 mb 0.00 in0.0 mm 0.00 in0.0 mm 0.18 in4.6 mm
01:15 AM 53.8°F12.1°C 51.5°F10.8°C 92% 0.4 mph SSE0.6 kmh SSE 1.8 mph2.9 kmh 29.87 in1011.5 mb 0.00 in0.0 mm 0.00 in0.0 mm 0.18 in4.6 mm
01:20 AM 53.6°F12.0°C 51.3°F10.7°C 92% 0.7 mph SW1.1 kmh SW 2.0 mph3.2 kmh 29.88 in1011.9 mb 0.00 in0.0 mm 0.00 in0.0 mm 0.18 in4.6 mm
01:25 AM 53.4°F11.9°C 51.2°F10.7°C 92% 3.1 mph WSW5.0 kmh WSW 7.4 mph11.9 kmh 29.88 in1011.9 mb 0.00 in0.0 mm 0.00 in0.0 mm 0.18 in4.6 mm
01:30 AM 53.4°F11.9°C 51.2°F10.7°C 92% 3.3 mph WSW5.3 kmh WSW 7.4 mph11.9 kmh 29.88 in1011.9 mb 0.00 in0.0 mm 0.00 in0.0 mm 0.18 in4.6 mm
01:35 AM 53.4°F11.9°C 51.2°F10.7°C 92% 0.8 mph W1.3 kmh W 2.2 mph3.5 kmh 29.87 in1011.5 mb 0.00 in0.0 mm 0.00 in0.0 mm 0.18 in4.6 mm
01:37 AM 53.4°F11.9°C 51.2°F10.7°C 92% Calm Calm -- 29.88 in1011.9 mb 0.00 in0.0 mm 0.00 in0.0 mm 0.22 in5.6 mm
01:40 AM 53.4°F11.9°C 51.2°F10.7°C 92% 0.2 mph WSW0.3 kmh WSW 2.2 mph3.5 kmh 29.88 in1011.9 mb 0.00 in0.0 mm 0.00 in0.0 mm 0.18 in4.6 mm
01:45 AM 53.4°F11.9°C 51.2°F10.7°C 92% Calm Calm -- 29.88 in1011.9 mb 0.00 in0.0 mm 0.00 in0.0 mm 0.18 in4.6 mm
01:50 AM 53.6°F12.0°C 51.3°F10.7°C 92% Calm Calm -- 29.88 in1011.9 mb 0.00 in0.0 mm 0.00 in0.0 mm 0.18 in4.6 mm
01:55 AM 53.6°F12.0°C 51.6°F10.9°C 93% Calm Calm -- 29.87 in1011.5 mb 0.00 in0.0 mm 0.00 in0.0 mm 0.18 in4.6 mm
02:05 AM 53.4°F11.9°C 51.4°F10.8°C 93% 0.5 mph NNE0.8 kmh NNE 0.9 mph1.4 kmh 29.85 in1010.8 mb 0.00 in0.0 mm 0.00 in0.0 mm 0.18 in4.6 mm
02:10 AM 53.4°F11.9°C 51.4°F10.8°C 93% 0.2 mph NNE0.3 kmh NNE 0.9 mph1.4 kmh 29.84 in1010.5 mb 0.00 in0.0 mm 0.00 in0.0 mm 0.18 in4.6 mm
02:15 AM 53.4°F11.9°C 51.4°F10.8°C 93% Calm Calm 0.9 mph1.4 kmh 29.84 in1010.5 mb 0.00 in0.0 mm 0.00 in0.0 mm 0.18 in4.6 mm
02:20 AM 53.2°F11.8°C 51.3°F10.7°C 93% 0.2 mph NE0.3 kmh NE 1.1 mph1.8 kmh 29.84 in1010.5 mb 0.00 in0.0 mm 0.00 in0.0 mm 0.18 in4.6 mm
02:25 AM 52.9°F11.6°C 50.9°F10.5°C 93% 0.2 mph NE0.3 kmh NE 1.1 mph1.8 kmh 29.84 in1010.5 mb 0.00 in0.0 mm 0.00 in0.0 mm 0.18 in4.6 mm
02:30 AM 52.9°F11.6°C 50.9°F10.5°C 93% Calm Calm 1.1 mph1.8 kmh 29.84 in1010.5 mb 0.00 in0.0 mm 0.00 in0.0 mm 0.18 in4.6 mm
02:35 AM 52.9°F11.6°C 50.9°F10.5°C 93% Calm Calm -- 29.84 in1010.5 mb 0.00 in0.0 mm 0.00 in0.0 mm 0.18 in4.6 mm
02:37 AM 52.9°F11.6°C 50.9°F10.5°C 93% Calm Calm -- 29.84 in1010.5 mb 0.00 in0.0 mm 0.00 in0.0 mm 0.22 in5.6 mm
02:40 AM 52.9°F11.6°C 50.9°F10.5°C 93% Calm Calm -- 29.84 in1010.5 mb 0.00 in0.0 mm 0.00 in0.0 mm 0.18 in4.6 mm
02:45 AM 52.7°F11.5°C 50.7°F10.4°C 93% 0.2 mph SE0.3 kmh SE 1.1 mph1.8 kmh 29.84 in1010.5 mb 0.00 in0.0 mm 0.00 in0.0 mm 0.18 in4.6 mm
02:50 AM 52.7°F11.5°C 50.7°F10.4°C 93% 0.2 mph SE0.3 kmh SE 1.1 mph1.8 kmh 29.84 in1010.5 mb 0.00 in0.0 mm 0.00 in0.0 mm 0.18 in4.6 mm
02:55 AM 52.7°F11.5°C 50.7°F10.4°C 93% Calm Calm -- 29.83 in1010.2 mb 0.00 in0.0 mm 0.00 in0.0 mm 0.18 in4.6 mm
03:00 AM 52.7°F11.5°C 50.7°F10.4°C 93% Calm Calm -- 29.83 in1010.2 mb 0.00 in0.0 mm 0.00 in0.0 mm 0.18 in4.6 mm
03:05 AM 52.7°F11.5°C 50.7°F10.4°C 93% Calm Calm -- 29.84 in1010.5 mb 0.00 in0.0 mm 0.00 in0.0 mm 0.18 in4.6 mm
03:10 AM 52.5°F11.4°C 50.6°F10.3°C 93% 0.6 mph WNW1.0 kmh WNW 2.5 mph4.0 kmh 29.83 in1010.2 mb 0.00 in0.0 mm 0.00 in0.0 mm 0.18 in4.6 mm
03:15 AM 52.5°F11.4°C 50.6°F10.3°C 93% 1.5 mph WNW2.4 kmh WNW 2.5 mph4.0 kmh 29.83 in1010.2 mb 0.00 in0.0 mm 0.00 in0.0 mm 0.18 in4.6 mm
03:20 AM 52.5°F11.4°C 50.6°F10.3°C 93% 2.1 mph W3.4 kmh W 2.5 mph4.0 kmh 29.83 in1010.2 mb 0.00 in0.0 mm 0.00 in0.0 mm 0.18 in4.6 mm
03:25 AM 52.5°F11.4°C 50.6°F10.3°C 93% 1.3 mph W2.1 kmh W 2.5 mph4.0 kmh 29.83 in1010.2 mb 0.00 in0.0 mm 0.00 in0.0 mm 0.18 in4.6 mm
03:30 AM 52.5°F11.4°C 50.6°F10.3°C 93% 0.2 mph N0.3 kmh N 2.5 mph4.0 kmh 29.83 in1010.2 mb 0.00 in0.0 mm 0.00 in0.0 mm 0.18 in4.6 mm
03:35 AM 52.5°F11.4°C 50.6°F10.3°C 93% 0.7 mph NNE1.1 kmh NNE 1.3 mph2.1 kmh 29.83 in1010.2 mb 0.00 in0.0 mm 0.00 in0.0 mm 0.18 in4.6 mm
03:37 AM 52.5°F11.4°C 50.6°F10.3°C 93% 1.3 mph NNE2.1 kmh NNE 1.3 mph2.1 kmh 29.82 in1009.8 mb 0.00 in0.0 mm 0.00 in0.0 mm 0.22 in5.6 mm
03:40 AM 52.3°F11.3°C 50.4°F10.2°C 93% 1.4 mph NNE2.3 kmh NNE 2.7 mph4.3 kmh 29.83 in1010.2 mb 0.00 in0.0 mm 0.00 in0.0 mm 0.18 in4.6 mm
03:45 AM 52.3°F11.3°C 50.4°F10.2°C 93% 1.2 mph NNE1.9 kmh NNE 2.7 mph4.3 kmh 29.83 in1010.2 mb 0.00 in0.0 mm 0.00 in0.0 mm 0.18 in4.6 mm
03:50 AM 52.3°F11.3°C 50.4°F10.2°C 93% 0.5 mph NNE0.8 kmh NNE 2.7 mph4.3 kmh 29.83 in1010.2 mb 0.02 in0.5 mm 0.24 in6.1 mm 0.20 in5.1 mm
03:55 AM 52.2°F11.2°C 50.2°F10.1°C 93% 0.7 mph N1.1 kmh N 2.0 mph3.2 kmh 29.82 in1009.8 mb 0.02 in0.5 mm 0.00 in0.0 mm 0.20 in5.1 mm
04:00 AM 52.2°F11.2°C 50.2°F10.1°C 93% 1.2 mph NE1.9 kmh NE 3.6 mph5.8 kmh 29.83 in1010.2 mb 0.02 in0.5 mm 0.00 in0.0 mm 0.20 in5.1 mm
04:05 AM 52.0°F11.1°C 50.0°F10.0°C 93% 0.9 mph SSE1.4 kmh SSE 3.6 mph5.8 kmh 29.83 in1010.2 mb 0.02 in0.5 mm 0.00 in0.0 mm 0.20 in5.1 mm
04:10 AM 52.0°F11.1°C 50.0°F10.0°C 93% 0.7 mph SSE1.1 kmh SSE 3.6 mph5.8 kmh 29.83 in1010.2 mb 0.02 in0.5 mm 0.00 in0.0 mm 0.20 in5.1 mm
04:15 AM 52.0°F11.1°C 50.0°F10.0°C 93% 0.7 mph NNW1.1 kmh NNW 1.6 mph2.6 kmh 29.83 in1010.2 mb 0.02 in0.5 mm 0.00 in0.0 mm 0.20 in5.1 mm
04:20 AM 51.8°F11.0°C 49.8°F9.9°C 93% 0.4 mph NNW0.6 kmh NNW 1.6 mph2.6 kmh 29.83 in1010.2 mb 0.02 in0.5 mm 0.00 in0.0 mm 0.20 in5.1 mm
04:25 AM 51.6°F10.9°C 49.7°F9.8°C 93% Calm Calm -- 29.83 in1010.2 mb 0.02 in0.5 mm 0.00 in0.0 mm 0.20 in5.1 mm
04:30 AM 51.6°F10.9°C 49.7°F9.8°C 93% 0.4 mph SSE0.6 kmh SSE 1.8 mph2.9 kmh 29.83 in1010.2 mb 0.02 in0.5 mm 0.00 in0.0 mm 0.20 in5.1 mm
04:35 AM 51.6°F10.9°C 49.7°F9.8°C 93% 0.8 mph SE1.3 kmh SE 1.8 mph2.9 kmh 29.83 in1010.2 mb 0.02 in0.5 mm 0.00 in0.0 mm 0.20 in5.1 mm
04:37 AM 51.6°F10.9°C 49.7°F9.8°C 93% Calm Calm -- 29.83 in1010.2 mb 0.02 in0.5 mm 0.00 in0.0 mm 0.24 in6.1 mm
04:40 AM 51.6°F10.9°C 49.7°F9.8°C 93% 0.6 mph SE1.0 kmh SE 0.9 mph1.4 kmh 29.83 in1010.2 mb 0.02 in0.5 mm 0.00 in0.0 mm 0.20 in5.1 mm
04:45 AM 51.6°F10.9°C 49.7°F9.8°C 93% 0.1 mph SE0.2 kmh SE 0.9 mph1.4 kmh 29.84 in1010.5 mb 0.02 in0.5 mm 0.00 in0.0 mm 0.20 in5.1 mm
04:50 AM 51.6°F10.9°C 49.7°F9.8°C 93% Calm Calm -- 29.84 in1010.5 mb 0.00 in0.0 mm 0.00 in0.0 mm 0.20 in5.1 mm
04:55 AM 51.6°F10.9°C 49.7°F9.8°C 93% Calm Calm -- 29.83 in1010.2 mb 0.00 in0.0 mm 0.00 in0.0 mm 0.20 in5.1 mm
05:00 AM 51.6°F10.9°C 49.7°F9.8°C 93% Calm Calm -- 29.84 in1010.5 mb 0.00 in0.0 mm 0.00 in0.0 mm 0.20 in5.1 mm
05:05 AM 51.6°F10.9°C 49.7°F9.8°C 93% Calm Calm -- 29.84 in1010.5 mb 0.00 in0.0 mm 0.00 in0.0 mm 0.20 in5.1 mm
05:10 AM 51.6°F10.9°C 49.7°F9.8°C 93% Calm Calm -- 29.85 in1010.8 mb 0.00 in0.0 mm 0.00 in0.0 mm 0.20 in5.1 mm
05:15 AM 51.6°F10.9°C 49.7°F9.8°C 93% Calm Calm -- 29.85 in1010.8 mb 0.00 in0.0 mm 0.00 in0.0 mm 0.20 in5.1 mm
05:20 AM 51.6°F10.9°C 49.7°F9.8°C 93% Calm Calm -- 29.85 in1010.8 mb 0.00 in0.0 mm 0.00 in0.0 mm 0.20 in5.1 mm
05:25 AM 51.6°F10.9°C 49.7°F9.8°C 93% Calm Calm -- 29.85 in1010.8 mb 0.00 in0.0 mm 0.00 in0.0 mm 0.20 in5.1 mm
05:30 AM 51.8°F11.0°C 49.8°F9.9°C 93% 0.2 mph NNW0.3 kmh NNW 0.9 mph1.4 kmh 29.85 in1010.8 mb 0.00 in0.0 mm 0.00 in0.0 mm 0.20 in5.1 mm
05:35 AM 51.8°F11.0°C 49.8°F9.9°C 93% 0.2 mph NNW0.3 kmh NNW 0.9 mph1.4 kmh 29.85 in1010.8 mb 0.00 in0.0 mm 0.00 in0.0 mm 0.20 in5.1 mm
05:37 AM 51.8°F11.0°C 49.8°F9.9°C 93% 0.9 mph ENE1.4 kmh ENE 0.9 mph1.4 kmh 29.85 in1010.8 mb 0.00 in0.0 mm 0.00 in0.0 mm 0.24 in6.1 mm
05:40 AM 51.6°F10.9°C 49.7°F9.8°C 93% 0.4 mph NE0.6 kmh NE 0.9 mph1.4 kmh 29.85 in1010.8 mb 0.00 in0.0 mm 0.00 in0.0 mm 0.20 in5.1 mm
05:45 AM 52.0°F11.1°C 50.0°F10.0°C 93% 0.4 mph NE0.6 kmh NE 0.9 mph1.4 kmh 29.84 in1010.5 mb 0.00 in0.0 mm 0.00 in0.0 mm 0.20 in5.1 mm
05:50 AM 51.8°F11.0°C 49.8°F9.9°C 93% Calm Calm 0.9 mph1.4 kmh 29.84 in1010.5 mb 0.00 in0.0 mm 0.00 in0.0 mm 0.20 in5.1 mm
05:55 AM 51.8°F11.0°C 49.8°F9.9°C 93% Calm Calm -- 29.85 in1010.8 mb 0.00 in0.0 mm 0.00 in0.0 mm 0.20 in5.1 mm
06:00 AM 52.0°F11.1°C 50.0°F10.0°C 93% 0.5 mph NNE0.8 kmh NNE 2.0 mph3.2 kmh 29.84 in1010.5 mb 0.00 in0.0 mm 0.00 in0.0 mm 0.20 in5.1 mm
06:05 AM 52.2°F11.2°C 50.2°F10.1°C 93% 1.4 mph NNE2.3 kmh NNE 2.0 mph3.2 kmh 29.85 in1010.8 mb 0.00 in0.0 mm 0.00 in0.0 mm 0.20 in5.1 mm
06:10 AM 52.2°F11.2°C 50.2°F10.1°C 93% 1.4 mph NE2.3 kmh NE 2.0 mph3.2 kmh 29.85 in1010.8 mb 0.00 in0.0 mm 0.00 in0.0 mm 0.20 in5.1 mm
06:15 AM 52.2°F11.2°C 50.2°F10.1°C 93% 0.5 mph S0.8 kmh S 1.6 mph2.6 kmh 29.85 in1010.8 mb 0.00 in0.0 mm 0.00 in0.0 mm 0.20 in5.1 mm
06:20 AM 52.2°F11.2°C 50.2°F10.1°C 93% 0.3 mph WNW0.5 kmh WNW 0.9 mph1.4 kmh 29.85 in1010.8 mb 0.00 in0.0 mm 0.00 in0.0 mm 0.20 in5.1 mm
06:25 AM 52.3°F11.3°C 50.4°F10.2°C 93% 1.0 mph N1.6 kmh N 1.8 mph2.9 kmh 29.84 in1010.5 mb 0.00 in0.0 mm 0.00 in0.0 mm 0.20 in5.1 mm
06:30 AM 52.3°F11.3°C 50.4°F10.2°C 93% 1.6 mph NNE2.6 kmh NNE 2.0 mph3.2 kmh 29.84 in1010.5 mb 0.00 in0.0 mm 0.00 in0.0 mm 0.20 in5.1 mm
06:35 AM 52.3°F11.3°C 50.4°F10.2°C 93% 1.7 mph NNE2.7 kmh NNE 2.0 mph3.2 kmh 29.85 in1010.8 mb 0.00 in0.0 mm 0.00 in0.0 mm 0.20 in5.1 mm
06:37 AM 52.3°F11.3°C 50.4°F10.2°C 93% 1.6 mph ESE2.6 kmh ESE 1.6 mph2.6 kmh 29.86 in1011.2 mb 0.00 in0.0 mm 0.00 in0.0 mm 0.24 in6.1 mm
06:40 AM 52.5°F11.4°C 50.6°F10.3°C 93% 2.0 mph E3.2 kmh E 4.9 mph7.9 kmh 29.87 in1011.5 mb 0.00 in0.0 mm 0.00 in0.0 mm 0.20 in5.1 mm
06:45 AM 52.5°F11.4°C 50.6°F10.3°C 93% 5.8 mph SSE9.3 kmh SSE 12.1 mph19.5 kmh 29.89 in1012.2 mb 0.00 in0.0 mm 0.00 in0.0 mm 0.20 in5.1 mm
06:50 AM 52.3°F11.3°C 50.4°F10.2°C 93% 8.1 mph SSE13.0 kmh SSE 12.1 mph19.5 kmh 29.89 in1012.2 mb 0.00 in0.0 mm 0.00 in0.0 mm 0.20 in5.1 mm
06:55 AM 52.3°F11.3°C 50.7°F10.4°C 94% 6.4 mph S10.3 kmh S 12.1 mph19.5 kmh 29.88 in1011.9 mb 0.00 in0.0 mm 0.00 in0.0 mm 0.20 in5.1 mm
07:00 AM 52.3°F11.3°C 50.7°F10.4°C 94% 3.9 mph SSW6.3 kmh SSW 6.3 mph10.1 kmh 29.87 in1011.5 mb 0.00 in0.0 mm 0.00 in0.0 mm 0.20 in5.1 mm
07:05 AM 52.3°F11.3°C 50.7°F10.4°C 94% 1.1 mph S1.8 kmh S 4.5 mph7.2 kmh 29.87 in1011.5 mb 0.00 in0.0 mm 0.00 in0.0 mm 0.20 in5.1 mm
07:10 AM 52.3°F11.3°C 50.7°F10.4°C 94% Calm Calm -- 29.87 in1011.5 mb 0.00 in0.0 mm 0.00 in0.0 mm 0.20 in5.1 mm
07:15 AM 52.3°F11.3°C 50.7°F10.4°C 94% Calm Calm -- 29.87 in1011.5 mb 0.04 in1.0 mm 0.48 in12.2 mm 0.24 in6.1 mm
07:20 AM 52.3°F11.3°C 50.7°F10.4°C 94% Calm Calm -- 29.87 in1011.5 mb 0.04 in1.0 mm 0.00 in0.0 mm 0.24 in6.1 mm
07:25 AM 52.3°F11.3°C 50.7°F10.4°C 94% Calm Calm -- 29.87 in1011.5 mb 0.04 in1.0 mm 0.00 in0.0 mm 0.24 in6.1 mm
07:30 AM 52.5°F11.4°C 50.8°F10.4°C 94% Calm Calm -- 29.87 in1011.5 mb 0.06 in1.5 mm 0.24 in6.1 mm 0.26 in6.6 mm
07:35 AM 52.3°F11.3°C 50.7°F10.4°C 94% Calm Calm -- 29.87 in1011.5 mb 0.06 in1.5 mm 0.00 in0.0 mm 0.26 in6.6 mm
07:37 AM 52.3°F11.3°C 50.7°F10.4°C 94% Calm Calm -- 29.87 in1011.5 mb 0.06 in1.5 mm 0.00 in0.0 mm 0.31 in7.9 mm
07:40 AM 52.5°F11.4°C 50.8°F10.4°C 94% 0.2 mph NNW0.3 kmh NNW 0.9 mph1.4 kmh 29.86 in1011.2 mb 0.06 in1.5 mm 0.00 in0.0 mm 0.26 in6.6 mm
07:45 AM 52.5°F11.4°C 50.8°F10.4°C 94% 0.2 mph NNW0.3 kmh NNW 0.9 mph1.4 kmh 29.86 in1011.2 mb 0.06 in1.5 mm 0.00 in0.0 mm 0.26 in6.6 mm
07:50 AM 52.5°F11.4°C 50.8°F10.4°C 94% 0.2 mph N0.3 kmh N 1.6 mph2.6 kmh 29.86 in1011.2 mb 0.06 in1.5 mm 0.00 in0.0 mm 0.26 in6.6 mm
07:55 AM 52.5°F11.4°C 50.8°F10.4°C 94% 1.0 mph N1.6 kmh N 1.6 mph2.6 kmh 29.86 in1011.2 mb 0.06 in1.5 mm 0.00 in0.0 mm 0.26 in6.6 mm
08:00 AM 52.5°F11.4°C 50.8°F10.4°C 94% 1.3 mph NNE2.1 kmh NNE 1.6 mph2.6 kmh 29.85 in1010.8 mb 0.06 in1.5 mm 0.00 in0.0 mm 0.26 in6.6 mm
08:05 AM 52.5°F11.4°C 50.8°F10.4°C 94% 1.0 mph NE1.6 kmh NE 1.6 mph2.6 kmh 29.85 in1010.8 mb 0.06 in1.5 mm 0.00 in0.0 mm 0.26 in6.6 mm
08:10 AM 52.7°F11.5°C 51.0°F10.6°C 94% 0.7 mph NE1.1 kmh NE 1.6 mph2.6 kmh 29.85 in1010.8 mb 0.06 in1.5 mm 0.00 in0.0 mm 0.26 in6.6 mm
08:15 AM 52.9°F11.6°C 51.2°F10.7°C 94% 0.2 mph NE0.3 kmh NE 1.6 mph2.6 kmh 29.86 in1011.2 mb 0.02 in0.5 mm 0.00 in0.0 mm 0.26 in6.6 mm
08:20 AM 52.9°F11.6°C 51.2°F10.7°C 94% 0.7 mph N1.1 kmh N 3.1 mph5.0 kmh 29.86 in1011.2 mb 0.02 in0.5 mm 0.00 in0.0 mm 0.26 in6.6 mm
08:25 AM 53.1°F11.7°C 51.4°F10.8°C 94% 0.7 mph N1.1 kmh N 3.1 mph5.0 kmh 29.86 in1011.2 mb 0.02 in0.5 mm 0.00 in0.0 mm 0.26 in6.6 mm
08:30 AM 53.2°F11.8°C 51.6°F10.9°C 94% Calm Calm -- 29.86 in1011.2 mb 0.00 in0.0 mm 0.00 in0.0 mm 0.26 in6.6 mm
08:35 AM 53.4°F11.9°C 51.7°F10.9°C 94% Calm Calm -- 29.86 in1011.2 mb 0.00 in0.0 mm 0.00 in0.0 mm 0.26 in6.6 mm
08:37 AM 53.4°F11.9°C 51.7°F10.9°C 94% Calm Calm -- 29.86 in1011.2 mb 0.00 in0.0 mm 0.00 in0.0 mm 0.31 in7.9 mm
08:40 AM 53.4°F11.9°C 51.7°F10.9°C 94% Calm Calm -- 29.86 in1011.2 mb 0.00 in0.0 mm 0.00 in0.0 mm 0.26 in6.6 mm
08:45 AM 53.4°F11.9°C 51.7°F10.9°C 94% Calm Calm -- 29.86 in1011.2 mb 0.00 in0.0 mm 0.00 in0.0 mm 0.26 in6.6 mm
08:50 AM 54.1°F12.3°C 52.5°F11.4°C 94% Calm Calm -- 29.87 in1011.5 mb 0.00 in0.0 mm 0.00 in0.0 mm 0.26 in6.6 mm
08:55 AM 54.1°F12.3°C 52.5°F11.4°C 94% Calm Calm -- 29.87 in1011.5 mb 0.00 in0.0 mm 0.00 in0.0 mm 0.26 in6.6 mm
09:00 AM 54.3°F12.4°C 52.6°F11.4°C 94% 1.1 mph S1.8 kmh S 2.7 mph4.3 kmh 29.87 in1011.5 mb 0.00 in0.0 mm 0.00 in0.0 mm 0.26 in6.6 mm
09:05 AM 54.5°F12.5°C 52.8°F11.6°C 94% 2.1 mph S3.4 kmh S 2.7 mph4.3 kmh 29.87 in1011.5 mb 0.00 in0.0 mm 0.00 in0.0 mm 0.26 in6.6 mm
09:10 AM 54.7°F12.6°C 53.0°F11.7°C 94% 1.3 mph S2.1 kmh S 2.7 mph4.3 kmh 29.87 in1011.5 mb 0.00 in0.0 mm 0.00 in0.0 mm 0.26 in6.6 mm
09:15 AM 54.7°F12.6°C 53.0°F11.7°C 94% 0.3 mph SSW0.5 kmh SSW 1.3 mph2.1 kmh 29.87 in1011.5 mb 0.00 in0.0 mm 0.00 in0.0 mm 0.26 in6.6 mm
09:20 AM 54.7°F12.6°C 53.0°F11.7°C 94% Calm Calm -- 29.87 in1011.5 mb 0.00 in0.0 mm 0.00 in0.0 mm 0.26 in6.6 mm
09:25 AM 54.7°F12.6°C 53.0°F11.7°C 94% Calm Calm -- 29.87 in1011.5 mb 0.00 in0.0 mm 0.00 in0.0 mm 0.26 in6.6 mm
09:30 AM 54.7°F12.6°C 53.0°F11.7°C 94% Calm Calm -- 29.87 in1011.5 mb 0.00 in0.0 mm 0.00 in0.0 mm 0.26 in6.6 mm
09:35 AM 54.7°F12.6°C 53.0°F11.7°C 94% Calm Calm -- 29.87 in1011.5 mb 0.00 in0.0 mm 0.00 in0.0 mm 0.26 in6.6 mm
09:37 AM 54.7°F12.6°C 53.0°F11.7°C 94% Calm Calm -- 29.87 in1011.5 mb 0.00 in0.0 mm 0.00 in0.0 mm 0.31 in7.9 mm
09:40 AM 55.0°F12.8°C 53.3°F11.8°C 94% 0.3 mph S0.5 kmh S 1.6 mph2.6 kmh 29.87 in1011.5 mb 0.00 in0.0 mm 0.00 in0.0 mm 0.26 in6.6 mm
09:45 AM 55.2°F12.9°C 53.5°F11.9°C 94% 0.6 mph SSW1.0 kmh SSW 1.6 mph2.6 kmh 29.87 in1011.5 mb 0.00 in0.0 mm 0.00 in0.0 mm 0.26 in6.6 mm
09:50 AM 55.2°F12.9°C 53.5°F11.9°C 94% 1.0 mph WSW1.6 kmh WSW 2.0 mph3.2 kmh 29.87 in1011.5 mb 0.00 in0.0 mm 0.00 in0.0 mm 0.26 in6.6 mm
09:55 AM 55.2°F12.9°C 53.5°F11.9°C 94% 1.7 mph SW2.7 kmh SW 2.2 mph3.5 kmh 29.87 in1011.5 mb 0.00 in0.0 mm 0.00 in0.0 mm 0.26 in6.6 mm
10:00 AM 55.0°F12.8°C 53.3°F11.8°C 94% 2.2 mph SSW3.5 kmh SSW 2.2 mph3.5 kmh 29.87 in1011.5 mb 0.00 in0.0 mm 0.00 in0.0 mm 0.26 in6.6 mm
10:05 AM 55.0°F12.8°C 53.3°F11.8°C 94% 2.1 mph S3.4 kmh S 2.5 mph4.0 kmh 29.88 in1011.9 mb 0.00 in0.0 mm 0.00 in0.0 mm 0.26 in6.6 mm
10:10 AM 55.0°F12.8°C 53.3°F11.8°C 94% 2.0 mph S3.2 kmh S 2.5 mph4.0 kmh 29.88 in1011.9 mb 0.00 in0.0 mm 0.00 in0.0 mm 0.26 in6.6 mm
10:15 AM 55.0°F12.8°C 53.3°F11.8°C 94% 2.0 mph SSW3.2 kmh SSW 2.5 mph4.0 kmh 29.88 in1011.9 mb 0.00 in0.0 mm 0.00 in0.0 mm 0.26 in6.6 mm
10:20 AM 55.0°F12.8°C 53.3°F11.8°C 94% 1.9 mph S3.1 kmh S 3.1 mph5.0 kmh 29.88 in1011.9 mb 0.00 in0.0 mm 0.00 in0.0 mm 0.26 in6.6 mm
10:25 AM 55.0°F12.8°C 53.3°F11.8°C 94% 2.4 mph S3.9 kmh S 4.0 mph6.4 kmh 29.88 in1011.9 mb 0.00 in0.0 mm 0.00 in0.0 mm 0.26 in6.6 mm
10:30 AM 55.2°F12.9°C 53.2°F11.8°C 93% 3.7 mph S6.0 kmh S 5.1 mph8.2 kmh 29.88 in1011.9 mb 0.00 in0.0 mm 0.00 in0.0 mm 0.26 in6.6 mm
10:35 AM 55.0°F12.8°C 53.1°F11.7°C 93% 3.8 mph S6.1 kmh S 5.1 mph8.2 kmh 29.88 in1011.9 mb 0.00 in0.0 mm 0.00 in0.0 mm 0.26 in6.6 mm
10:37 AM 55.0°F12.8°C 53.1°F11.7°C 93% 2.0 mph S3.2 kmh S 2.0 mph3.2 kmh 29.88 in1011.9 mb 0.00 in0.0 mm 0.00 in0.0 mm 0.31 in7.9 mm
10:40 AM 55.0°F12.8°C 53.1°F11.7°C 93% 2.8 mph S4.5 kmh S 3.8 mph6.1 kmh 29.89 in1012.2 mb 0.00 in0.0 mm 0.00 in0.0 mm 0.26 in6.6 mm
10:45 AM 55.0°F12.8°C 53.1°F11.7°C 93% 2.3 mph SSW3.7 kmh SSW 3.4 mph5.5 kmh 29.89 in1012.2 mb 0.00 in0.0 mm 0.00 in0.0 mm 0.26 in6.6 mm
10:50 AM 55.0°F12.8°C 53.1°F11.7°C 93% 2.9 mph W4.7 kmh W 3.4 mph5.5 kmh 29.88 in1011.9 mb 0.00 in0.0 mm 0.00 in0.0 mm 0.26 in6.6 mm
10:55 AM 55.0°F12.8°C 53.1°F11.7°C 93% 3.4 mph WNW5.5 kmh WNW 3.4 mph5.5 kmh 29.88 in1011.9 mb 0.00 in0.0 mm 0.00 in0.0 mm 0.26 in6.6 mm
11:00 AM 54.3°F12.4°C 52.3°F11.3°C 93% 3.1 mph WNW5.0 kmh WNW 3.4 mph5.5 kmh 29.88 in1011.9 mb 0.00 in0.0 mm 0.00 in0.0 mm 0.26 in6.6 mm
11:05 AM 54.3°F12.4°C 52.3°F11.3°C 93% 1.6 mph WNW2.6 kmh WNW 3.4 mph5.5 kmh 29.88 in1011.9 mb 0.04 in1.0 mm 0.48 in12.2 mm 0.31 in7.9 mm
11:10 AM 54.5°F12.5°C 52.5°F11.4°C 93% 0.5 mph WNW0.8 kmh WNW 1.3 mph2.1 kmh 29.88 in1011.9 mb 0.04 in1.0 mm 0.00 in0.0 mm 0.31 in7.9 mm
11:15 AM 55.2°F12.9°C 53.2°F11.8°C 93% 0.9 mph W1.4 kmh W 2.5 mph4.0 kmh 29.87 in1011.5 mb 0.04 in1.0 mm 0.00 in0.0 mm 0.31 in7.9 mm
11:20 AM 55.2°F12.9°C 53.2°F11.8°C 93% 0.5 mph W0.8 kmh W 2.5 mph4.0 kmh 29.87 in1011.5 mb 0.04 in1.0 mm 0.00 in0.0 mm 0.31 in7.9 mm
11:25 AM 55.9°F13.3°C 53.9°F12.2°C 93% Calm Calm -- 29.87 in1011.5 mb 0.04 in1.0 mm 0.00 in0.0 mm 0.31 in7.9 mm
11:30 AM 56.5°F13.6°C 54.5°F12.5°C 93% 1.2 mph W1.9 kmh W 5.4 mph8.7 kmh 29.88 in1011.9 mb 0.04 in1.0 mm 0.00 in0.0 mm 0.31 in7.9 mm
11:35 AM 56.5°F13.6°C 54.5°F12.5°C 93% 2.2 mph W3.5 kmh W 5.4 mph8.7 kmh 29.89 in1012.2 mb 0.04 in1.0 mm 0.00 in0.0 mm 0.31 in7.9 mm
11:37 AM 56.5°F13.6°C 54.5°F12.5°C 93% 1.8 mph WNW2.9 kmh WNW 1.8 mph2.9 kmh 29.88 in1011.9 mb 0.04 in1.0 mm 0.00 in0.0 mm 0.35 in8.9 mm
11:40 AM 56.5°F13.6°C 54.5°F12.5°C 93% 1.8 mph WNW2.9 kmh WNW 2.2 mph3.5 kmh 29.89 in1012.2 mb 0.04 in1.0 mm 0.00 in0.0 mm 0.31 in7.9 mm
11:45 AM 56.8°F13.8°C 54.8°F12.7°C 93% 3.3 mph WNW5.3 kmh WNW 7.2 mph11.6 kmh 29.89 in1012.2 mb 0.04 in1.0 mm 0.00 in0.0 mm 0.31 in7.9 mm
11:50 AM 57.0°F13.9°C 55.0°F12.8°C 93% 4.6 mph WNW7.4 kmh WNW 7.2 mph11.6 kmh 29.90 in1012.5 mb 0.04 in1.0 mm 0.00 in0.0 mm 0.31 in7.9 mm
11:55 AM 57.0°F13.9°C 55.0°F12.8°C 93% 4.6 mph WNW7.4 kmh WNW 6.5 mph10.5 kmh 29.90 in1012.5 mb 0.04 in1.0 mm 0.00 in0.0 mm 0.31 in7.9 mm
12:00 PM 57.0°F13.9°C 55.0°F12.8°C 93% 4.4 mph ENE7.1 kmh ENE 6.5 mph10.5 kmh 29.90 in1012.5 mb 0.04 in1.0 mm 0.00 in0.0 mm 0.31 in7.9 mm
12:05 PM 58.5°F14.7°C 56.1°F13.4°C 92% 3.9 mph E6.3 kmh E 4.0 mph6.4 kmh 29.90 in1012.5 mb 0.00 in0.0 mm 0.00 in0.0 mm 0.31 in7.9 mm
12:10 PM 58.8°F14.9°C 56.5°F13.6°C 92% 3.8 mph NW6.1 kmh NW 5.4 mph8.7 kmh 29.89 in1012.2 mb 0.00 in0.0 mm 0.00 in0.0 mm 0.31 in7.9 mm
12:15 PM 59.2°F15.1°C 56.9°F13.8°C 92% 3.9 mph W6.3 kmh W 6.0 mph9.7 kmh 29.90 in1012.5 mb 0.00 in0.0 mm 0.00 in0.0 mm 0.31 in7.9 mm
12:20 PM 59.2°F15.1°C 56.2°F13.4°C 90% 4.3 mph W6.9 kmh W 6.0 mph9.7 kmh 29.90 in1012.5 mb 0.00 in0.0 mm 0.00 in0.0 mm 0.31 in7.9 mm
12:25 PM 59.5°F15.3°C 56.6°F13.7°C 89% 3.6 mph WNW5.8 kmh WNW 6.0 mph9.7 kmh 29.90 in1012.5 mb 0.00 in0.0 mm 0.00 in0.0 mm 0.31 in7.9 mm
12:30 PM 60.1°F15.6°C 56.8°F13.8°C 89% 2.6 mph W4.2 kmh W 3.8 mph6.1 kmh 29.91 in1012.9 mb 0.00 in0.0 mm 0.00 in0.0 mm 0.31 in7.9 mm
12:35 PM 60.1°F15.6°C 56.8°F13.8°C 89% 3.5 mph WSW5.6 kmh WSW 4.5 mph7.2 kmh 29.91 in1012.9 mb 0.00 in0.0 mm 0.00 in0.0 mm 0.31 in7.9 mm
12:37 PM 60.1°F15.6°C 56.8°F13.8°C 89% 4.5 mph W7.2 kmh W 4.5 mph7.2 kmh 29.91 in1012.9 mb 0.00 in0.0 mm 0.00 in0.0 mm 0.35 in8.9 mm
12:40 PM 60.4°F15.8°C 56.6°F13.7°C 87% 4.4 mph W7.1 kmh W 5.1 mph8.2 kmh 29.91 in1012.9 mb 0.00 in0.0 mm 0.00 in0.0 mm 0.31 in7.9 mm
12:45 PM 60.4°F15.8°C 56.6°F13.7°C 87% 4.3 mph W6.9 kmh W 5.1 mph8.2 kmh 29.90 in1012.5 mb 0.00 in0.0 mm 0.00 in0.0 mm 0.31 in7.9 mm
12:50 PM 60.8°F16.0°C 56.6°F13.7°C 86% 4.3 mph W6.9 kmh W 5.8 mph9.3 kmh 29.91 in1012.9 mb 0.00 in0.0 mm 0.00 in0.0 mm 0.31 in7.9 mm
12:55 PM 61.0°F16.1°C 56.4°F13.6°C 85% 5.6 mph WNW9.0 kmh WNW 6.9 mph11.1 kmh 29.90 in1012.5 mb 0.00 in0.0 mm 0.00 in0.0 mm 0.31 in7.9 mm
01:00 PM 61.0°F16.1°C 56.4°F13.6°C 85% 6.4 mph WNW10.3 kmh WNW 6.9 mph11.1 kmh 29.90 in1012.5 mb 0.00 in0.0 mm 0.00 in0.0 mm 0.31 in7.9 mm
01:05 PM 61.5°F16.4°C 57.0°F13.9°C 85% 4.2 mph W6.8 kmh W 6.9 mph11.1 kmh 29.91 in1012.9 mb 0.00 in0.0 mm 0.00 in0.0 mm 0.31 in7.9 mm
01:10 PM 61.5°F16.4°C 56.6°F13.7°C 84% 2.7 mph WNW4.3 kmh WNW 3.8 mph6.1 kmh 29.91 in1012.9 mb 0.00 in0.0 mm 0.00 in0.0 mm 0.31 in7.9 mm
01:15 PM 62.1°F16.7°C 56.5°F13.6°C 82% 4.1 mph NW6.6 kmh NW 5.4 mph8.7 kmh 29.90 in1012.5 mb 0.00 in0.0 mm 0.00 in0.0 mm 0.31 in7.9 mm
01:20 PM 62.1°F16.7°C 56.5°F13.6°C 82% 4.3 mph WNW6.9 kmh WNW 5.4 mph8.7 kmh 29.91 in1012.9 mb 0.00 in0.0 mm 0.00 in0.0 mm 0.31 in7.9 mm
01:25 PM 62.4°F16.9°C 56.5°F13.6°C 81% 4.0 mph WNW6.4 kmh WNW 4.0 mph6.4 kmh 29.91 in1012.9 mb 0.00 in0.0 mm 0.00 in0.0 mm 0.31 in7.9 mm
01:30 PM 62.8°F17.1°C 56.5°F13.6°C 80% 3.9 mph WNW6.3 kmh WNW 4.0 mph6.4 kmh 29.91 in1012.9 mb 0.00 in0.0 mm 0.00 in0.0 mm 0.31 in7.9 mm
01:35 PM 62.8°F17.1°C 56.2°F13.4°C 79% 4.0 mph WNW6.4 kmh WNW 5.6 mph9.0 kmh 29.91 in1012.9 mb 0.00 in0.0 mm 0.00 in0.0 mm 0.31 in7.9 mm
01:37 PM 63.0°F17.2°C 56.3°F13.5°C 79% 5.6 mph WNW9.0 kmh WNW 5.6 mph9.0 kmh 29.91 in1012.9 mb 0.00 in0.0 mm 0.00 in0.0 mm 0.35 in8.9 mm
01:40 PM 63.1°F17.3°C 56.2°F13.4°C 78% 4.8 mph WNW7.7 kmh WNW 5.6 mph9.0 kmh 29.91 in1012.9 mb 0.00 in0.0 mm 0.00 in0.0 mm 0.31 in7.9 mm
01:45 PM 63.1°F17.3°C 56.2°F13.4°C 78% 6.7 mph WNW10.8 kmh WNW 13.4 mph21.6 kmh 29.90 in1012.5 mb 0.00 in0.0 mm 0.00 in0.0 mm 0.31 in7.9 mm
01:50 PM 63.1°F17.3°C 56.2°F13.4°C 78% 6.9 mph WNW11.1 kmh WNW 13.4 mph21.6 kmh 29.91 in1012.9 mb 0.00 in0.0 mm 0.00 in0.0 mm 0.31 in7.9 mm
01:55 PM 63.3°F17.4°C 55.6°F13.1°C 76% 6.4 mph WNW10.3 kmh WNW 6.9 mph11.1 kmh 29.91 in1012.9 mb 0.00 in0.0 mm 0.00 in0.0 mm 0.31 in7.9 mm
02:00 PM 63.5°F17.5°C 56.2°F13.4°C 77% 5.8 mph WNW9.3 kmh WNW 6.9 mph11.1 kmh 29.91 in1012.9 mb 0.00 in0.0 mm 0.00 in0.0 mm 0.31 in7.9 mm
02:05 PM 63.7°F17.6°C 56.0°F13.3°C 76% 3.7 mph W6.0 kmh W 6.9 mph11.1 kmh 29.90 in1012.5 mb 0.00 in0.0 mm 0.00 in0.0 mm 0.31 in7.9 mm
02:10 PM 64.0°F17.8°C 56.3°F13.5°C 76% 3.0 mph W4.8 kmh W 4.3 mph6.9 kmh 29.90 in1012.5 mb 0.00 in0.0 mm 0.00 in0.0 mm 0.31 in7.9 mm
02:15 PM 64.6°F18.1°C 56.8°F13.8°C 76% 3.7 mph W6.0 kmh W 5.4 mph8.7 kmh 29.90 in1012.5 mb 0.00 in0.0 mm 0.00 in0.0 mm 0.31 in7.9 mm
02:20 PM 64.9°F18.3°C 57.2°F14.0°C 76% 4.2 mph W6.8 kmh W 5.4 mph8.7 kmh 29.90 in1012.5 mb 0.00 in0.0 mm 0.00 in0.0 mm 0.31 in7.9 mm
02:25 PM 65.1°F18.4°C 57.4°F14.1°C 76% 4.2 mph W6.8 kmh W 5.4 mph8.7 kmh 29.90 in1012.5 mb 0.00 in0.0 mm 0.00 in0.0 mm 0.31 in7.9 mm
02:30 PM 65.5°F18.6°C 57.3°F14.1°C 75% 4.2 mph WSW6.8 kmh WSW 5.1 mph8.2 kmh 29.90 in1012.5 mb 0.00 in0.0 mm 0.00 in0.0 mm 0.31 in7.9 mm
02:35 PM 65.7°F18.7°C 57.1°F13.9°C 74% 3.7 mph W6.0 kmh W 4.3 mph6.9 kmh 29.90 in1012.5 mb 0.00 in0.0 mm 0.00 in0.0 mm 0.31 in7.9 mm
02:37 PM 65.8°F18.8°C 57.3°F14.1°C 74% 1.8 mph WSW2.9 kmh WSW 1.8 mph2.9 kmh 29.90 in1012.5 mb 0.00 in0.0 mm 0.00 in0.0 mm 0.35 in8.9 mm
02:40 PM 66.0°F18.9°C 56.7°F13.7°C 72% 2.6 mph W4.2 kmh W 5.4 mph8.7 kmh 29.90 in1012.5 mb 0.00 in0.0 mm 0.00 in0.0 mm 0.31 in7.9 mm
02:45 PM 66.2°F19.0°C 56.9°F13.8°C 72% 3.8 mph SW6.1 kmh SW 5.6 mph9.0 kmh 29.90 in1012.5 mb 0.00 in0.0 mm 0.00 in0.0 mm 0.31 in7.9 mm
02:50 PM 66.4°F19.1°C 56.7°F13.7°C 71% 5.6 mph S9.0 kmh S 6.9 mph11.1 kmh 29.90 in1012.5 mb 0.00 in0.0 mm 0.00 in0.0 mm 0.31 in7.9 mm
02:55 PM 66.4°F19.1°C 56.7°F13.7°C 71% 4.1 mph SW6.6 kmh SW 6.9 mph11.1 kmh 29.90 in1012.5 mb 0.00 in0.0 mm 0.00 in0.0 mm 0.31 in7.9 mm
03:00 PM 66.6°F19.2°C 56.9°F13.8°C 71% 2.9 mph WSW4.7 kmh WSW 4.5 mph7.2 kmh 29.91 in1012.9 mb 0.00 in0.0 mm 0.00 in0.0 mm 0.31 in7.9 mm
03:05 PM 66.9°F19.4°C 57.6°F14.2°C 72% 3.4 mph WSW5.5 kmh WSW 4.5 mph7.2 kmh 29.90 in1012.5 mb 0.00 in0.0 mm 0.00 in0.0 mm 0.31 in7.9 mm
03:10 PM 67.1°F19.5°C 57.4°F14.1°C 71% 3.4 mph SW5.5 kmh SW 4.5 mph7.2 kmh 29.90 in1012.5 mb 0.00 in0.0 mm 0.00 in0.0 mm 0.31 in7.9 mm
03:15 PM 67.1°F19.5°C 57.0°F13.9°C 70% 2.3 mph SSW3.7 kmh SSW 4.5 mph7.2 kmh 29.90 in1012.5 mb 0.00 in0.0 mm 0.00 in0.0 mm 0.31 in7.9 mm
03:20 PM 67.1°F19.5°C 57.0°F13.9°C 70% 1.7 mph WSW2.7 kmh WSW 2.2 mph3.5 kmh 29.91 in1012.9 mb 0.00 in0.0 mm 0.00 in0.0 mm 0.31 in7.9 mm
03:25 PM 67.1°F19.5°C 57.4°F14.1°C 71% 4.0 mph WSW6.4 kmh WSW 7.6 mph12.2 kmh 29.91 in1012.9 mb 0.00 in0.0 mm 0.00 in0.0 mm 0.31 in7.9 mm
03:30 PM 67.3°F19.6°C 56.8°F13.8°C 69% 5.0 mph WSW8.0 kmh WSW 7.6 mph12.2 kmh 29.91 in1012.9 mb 0.00 in0.0 mm 0.00 in0.0 mm 0.31 in7.9 mm
03:35 PM 67.3°F19.6°C 56.8°F13.8°C 69% 5.3 mph S8.5 kmh S 6.7 mph10.8 kmh 29.90 in1012.5 mb 0.00 in0.0 mm 0.00 in0.0 mm 0.31 in7.9 mm
03:37 PM 67.3°F19.6°C 56.8°F13.8°C 69% 8.1 mph W13.0 kmh W 8.1 mph13.0 kmh 29.90 in1012.5 mb 0.00 in0.0 mm 0.00 in0.0 mm 0.35 in8.9 mm
03:40 PM 67.3°F19.6°C 56.8°F13.8°C 69% 6.8 mph SW10.9 kmh SW 8.1 mph13.0 kmh 29.91 in1012.9 mb 0.00 in0.0 mm 0.00 in0.0 mm 0.31 in7.9 mm
03:45 PM 67.3°F19.6°C 56.4°F13.6°C 68% 5.5 mph WSW8.9 kmh WSW 8.1 mph13.0 kmh 29.91 in1012.9 mb 0.00 in0.0 mm 0.00 in0.0 mm 0.31 in7.9 mm
03:50 PM 67.3°F19.6°C 56.4°F13.6°C 68% 5.4 mph WSW8.7 kmh WSW 7.6 mph12.2 kmh 29.91 in1012.9 mb 0.00 in0.0 mm 0.00 in0.0 mm 0.31 in7.9 mm
03:55 PM 67.3°F19.6°C 56.4°F13.6°C 68% 7.1 mph W11.4 kmh W 7.6 mph12.2 kmh 29.91 in1012.9 mb 0.00 in0.0 mm 0.00 in0.0 mm 0.31 in7.9 mm
04:00 PM 67.6°F19.8°C 56.7°F13.7°C 68% 6.4 mph WSW10.3 kmh WSW 7.6 mph12.2 kmh 29.91 in1012.9 mb 0.00 in0.0 mm 0.00 in0.0 mm 0.31 in7.9 mm
04:05 PM 67.6°F19.8°C 57.1°F13.9°C 69% 4.2 mph WSW6.8 kmh WSW 6.0 mph9.7 kmh 29.91 in1012.9 mb 0.00 in0.0 mm 0.00 in0.0 mm 0.31 in7.9 mm
04:10 PM 67.6°F19.8°C 56.7°F13.7°C 68% 3.5 mph WSW5.6 kmh WSW 4.7 mph7.6 kmh 29.91 in1012.9 mb 0.00 in0.0 mm 0.00 in0.0 mm 0.31 in7.9 mm
04:15 PM 67.8°F19.9°C 56.5°F13.6°C 67% 3.2 mph SW5.1 kmh SW 4.0 mph6.4 kmh 29.91 in1012.9 mb 0.00 in0.0 mm 0.00 in0.0 mm 0.31 in7.9 mm
04:20 PM 67.8°F19.9°C 56.9°F13.8°C 68% 3.0 mph SW4.8 kmh SW 3.8 mph6.1 kmh 29.91 in1012.9 mb 0.00 in0.0 mm 0.00 in0.0 mm 0.31 in7.9 mm
04:25 PM 67.8°F19.9°C 56.9°F13.8°C 68% 5.0 mph WSW8.0 kmh WSW 6.5 mph10.5 kmh 29.91 in1012.9 mb 0.00 in0.0 mm 0.00 in0.0 mm 0.31 in7.9 mm
04:30 PM 67.8°F19.9°C 56.9°F13.8°C 68% 6.4 mph WSW10.3 kmh WSW 6.5 mph10.5 kmh 29.91 in1012.9 mb 0.00 in0.0 mm 0.00 in0.0 mm 0.31 in7.9 mm
04:35 PM 67.8°F19.9°C 56.5°F13.6°C 67% 5.5 mph WSW8.9 kmh WSW 6.5 mph10.5 kmh 29.91 in1012.9 mb 0.00 in0.0 mm 0.00 in0.0 mm 0.31 in7.9 mm
04:37 PM 67.8°F19.9°C 56.0°F13.3°C 66% 5.6 mph WSW9.0 kmh WSW 5.6 mph9.0 kmh 29.91 in1012.9 mb 0.00 in0.0 mm 0.00 in0.0 mm 0.35 in8.9 mm
04:40 PM 67.6°F19.8°C 55.9°F13.3°C 66% 4.1 mph WSW6.6 kmh WSW 6.5 mph10.5 kmh 29.91 in1012.9 mb 0.00 in0.0 mm 0.00 in0.0 mm 0.31 in7.9 mm
04:45 PM 67.6°F19.8°C 55.9°F13.3°C 66% 3.0 mph W4.8 kmh W 5.6 mph9.0 kmh 29.91 in1012.9 mb 0.00 in0.0 mm 0.00 in0.0 mm 0.31 in7.9 mm
04:50 PM 67.6°F19.8°C 55.9°F13.3°C 66% 2.9 mph W4.7 kmh W 3.8 mph6.1 kmh 29.91 in1012.9 mb 0.00 in0.0 mm 0.00 in0.0 mm 0.31 in7.9 mm
04:55 PM 67.6°F19.8°C 56.3°F13.5°C 67% 3.2 mph W5.1 kmh W 3.8 mph6.1 kmh 29.92 in1013.2 mb 0.00 in0.0 mm 0.00 in0.0 mm 0.31 in7.9 mm
05:00 PM 67.6°F19.8°C 55.9°F13.3°C 66% 2.7 mph WNW4.3 kmh WNW 3.8 mph6.1 kmh 29.91 in1012.9 mb 0.00 in0.0 mm 0.00 in0.0 mm 0.31 in7.9 mm
05:05 PM 67.6°F19.8°C 55.9°F13.3°C 66% 2.1 mph WNW3.4 kmh WNW 2.9 mph4.7 kmh 29.92 in1013.2 mb 0.00 in0.0 mm 0.00 in0.0 mm 0.31 in7.9 mm
05:10 PM 67.3°F19.6°C 55.5°F13.1°C 66% 2.1 mph W3.4 kmh W 3.6 mph5.8 kmh 29.92 in1013.2 mb 0.00 in0.0 mm 0.00 in0.0 mm 0.31 in7.9 mm
05:15 PM 67.1°F19.5°C 55.4°F13.0°C 66% 2.7 mph WSW4.3 kmh WSW 3.6 mph5.8 kmh 29.92 in1013.2 mb 0.00 in0.0 mm 0.00 in0.0 mm 0.31 in7.9 mm
05:20 PM 66.7°F19.3°C 55.4°F13.0°C 67% 2.1 mph W3.4 kmh W 3.1 mph5.0 kmh 29.92 in1013.2 mb 0.00 in0.0 mm 0.00 in0.0 mm 0.31 in7.9 mm
05:25 PM 66.7°F19.3°C 55.0°F12.8°C 66% 1.4 mph WSW2.3 kmh WSW 2.9 mph4.7 kmh 29.92 in1013.2 mb 0.00 in0.0 mm 0.00 in0.0 mm 0.31 in7.9 mm
05:30 PM 66.7°F19.3°C 55.0°F12.8°C 66% 0.7 mph WSW1.1 kmh WSW 2.9 mph4.7 kmh 29.93 in1013.5 mb 0.00 in0.0 mm 0.00 in0.0 mm 0.31 in7.9 mm
05:35 PM 66.7°F19.3°C 55.0°F12.8°C 66% Calm Calm -- 29.93 in1013.5 mb 0.00 in0.0 mm 0.00 in0.0 mm 0.31 in7.9 mm
05:37 PM 66.7°F19.3°C 55.0°F12.8°C 66% Calm Calm -- 29.93 in1013.5 mb 0.00 in0.0 mm 0.00 in0.0 mm 0.35 in8.9 mm
05:40 PM 66.7°F19.3°C 55.4°F13.0°C 67% 0.4 mph WSW0.6 kmh WSW 1.8 mph2.9 kmh 29.93 in1013.5 mb 0.00 in0.0 mm 0.00 in0.0 mm 0.31 in7.9 mm
05:45 PM 65.1°F18.4°C 54.3°F12.4°C 68% 1.2 mph W1.9 kmh W 2.0 mph3.2 kmh 29.93 in1013.5 mb 0.00 in0.0 mm 0.00 in0.0 mm 0.31 in7.9 mm
05:50 PM 64.9°F18.3°C 54.1°F12.3°C 68% 1.2 mph W1.9 kmh W 2.0 mph3.2 kmh 29.93 in1013.5 mb 0.00 in0.0 mm 0.00 in0.0 mm 0.31 in7.9 mm
05:55 PM 64.6°F18.1°C 53.8°F12.1°C 68% 1.0 mph WSW1.6 kmh WSW 4.5 mph7.2 kmh 29.94 in1013.9 mb 0.00 in0.0 mm 0.00 in0.0 mm 0.31 in7.9 mm
06:00 PM 64.2°F17.9°C 53.4°F11.9°C 68% 1.5 mph W2.4 kmh W 4.5 mph7.2 kmh 29.93 in1013.5 mb 0.00 in0.0 mm 0.00 in0.0 mm 0.31 in7.9 mm
06:05 PM 64.0°F17.8°C 53.7°F12.1°C 69% 1.3 mph NW2.1 kmh NW 4.5 mph7.2 kmh 29.94 in1013.9 mb 0.00 in0.0 mm 0.00 in0.0 mm 0.31 in7.9 mm
06:10 PM 63.7°F17.6°C 53.3°F11.8°C 69% 0.8 mph NNW1.3 kmh NNW 1.3 mph2.1 kmh 29.94 in1013.9 mb 0.00 in0.0 mm 0.00 in0.0 mm 0.31 in7.9 mm
06:15 PM 63.7°F17.6°C 53.3°F11.8°C 69% 0.5 mph NW0.8 kmh NW 1.3 mph2.1 kmh 29.94 in1013.9 mb 0.00 in0.0 mm 0.00 in0.0 mm 0.31 in7.9 mm
06:20 PM 63.7°F17.6°C 53.3°F11.8°C 69% 0.2 mph WNW0.3 kmh WNW 1.1 mph1.8 kmh 29.94 in1013.9 mb 0.00 in0.0 mm 0.00 in0.0 mm 0.31 in7.9 mm
06:25 PM 63.7°F17.6°C 53.3°F11.8°C 69% 0.8 mph WNW1.3 kmh WNW 1.8 mph2.9 kmh 29.95 in1014.2 mb 0.00 in0.0 mm 0.00 in0.0 mm 0.31 in7.9 mm
06:30 PM 62.4°F16.9°C 52.5°F11.4°C 70% 1.2 mph WNW1.9 kmh WNW 1.8 mph2.9 kmh 29.95 in1014.2 mb 0.00 in0.0 mm 0.00 in0.0 mm 0.31 in7.9 mm
06:35 PM 61.9°F16.6°C 52.4°F11.3°C 71% 1.0 mph N1.6 kmh N 3.1 mph5.0 kmh 29.95 in1014.2 mb 0.00 in0.0 mm 0.00 in0.0 mm 0.31 in7.9 mm
06:37 PM 61.7°F16.5°C 52.2°F11.2°C 71% Calm Calm -- 29.95 in1014.2 mb 0.00 in0.0 mm 0.00 in0.0 mm 0.35 in8.9 mm
06:40 PM 61.5°F16.4°C 52.0°F11.1°C 71% 0.7 mph NNE1.1 kmh NNE 3.1 mph5.0 kmh 29.95 in1014.2 mb 0.00 in0.0 mm 0.00 in0.0 mm 0.31 in7.9 mm
06:45 PM 61.2°F16.2°C 51.7°F10.9°C 71% 0.7 mph NNE1.1 kmh NNE 2.0 mph3.2 kmh 29.96 in1014.6 mb 0.00 in0.0 mm 0.00 in0.0 mm 0.31 in7.9 mm
06:50 PM 61.0°F16.1°C 51.5°F10.8°C 71% 1.8 mph NNE2.9 kmh NNE 2.5 mph4.0 kmh 29.96 in1014.6 mb 0.00 in0.0 mm 0.00 in0.0 mm 0.31 in7.9 mm
06:55 PM 60.8°F16.0°C 51.7°F10.9°C 72% 2.2 mph NNE3.5 kmh NNE 2.5 mph4.0 kmh 29.96 in1014.6 mb 0.00 in0.0 mm 0.00 in0.0 mm 0.31 in7.9 mm
07:00 PM 60.4°F15.8°C 51.4°F10.8°C 72% 1.8 mph NNE2.9 kmh NNE 2.5 mph4.0 kmh 29.96 in1014.6 mb 0.00 in0.0 mm 0.00 in0.0 mm 0.31 in7.9 mm
07:05 PM 60.4°F15.8°C 51.4°F10.8°C 72% 0.7 mph NNE1.1 kmh NNE 2.0 mph3.2 kmh 29.97 in1014.9 mb 0.00 in0.0 mm 0.00 in0.0 mm 0.31 in7.9 mm
07:10 PM 60.1°F15.6°C 51.4°F10.8°C 73% Calm Calm -- 29.97 in1014.9 mb 0.00 in0.0 mm 0.00 in0.0 mm 0.31 in7.9 mm
07:15 PM 59.9°F15.5°C 51.2°F10.7°C 73% 0.6 mph NNE1.0 kmh NNE 1.8 mph2.9 kmh 29.97 in1014.9 mb 0.00 in0.0 mm 0.00 in0.0 mm 0.31 in7.9 mm
07:20 PM 59.9°F15.5°C 51.2°F10.7°C 73% 1.5 mph NNE2.4 kmh NNE 1.8 mph2.9 kmh 29.97 in1014.9 mb 0.00 in0.0 mm 0.00 in0.0 mm 0.31 in7.9 mm
07:25 PM 59.9°F15.5°C 51.2°F10.7°C 73% 0.9 mph NNE1.4 kmh NNE 1.8 mph2.9 kmh 29.97 in1014.9 mb 0.00 in0.0 mm 0.00 in0.0 mm 0.31 in7.9 mm
07:30 PM 59.9°F15.5°C 51.2°F10.7°C 73% Calm Calm 1.8 mph2.9 kmh 29.98 in1015.2 mb 0.00 in0.0 mm 0.00 in0.0 mm 0.31 in7.9 mm
07:35 PM 59.9°F15.5°C 51.2°F10.7°C 73% Calm Calm -- 29.98 in1015.2 mb 0.00 in0.0 mm 0.00 in0.0 mm 0.31 in7.9 mm
07:37 PM 61.7°F16.5°C 52.2°F11.2°C 71% Calm Calm -- 29.98 in1015.2 mb 0.00 in0.0 mm 0.00 in0.0 mm 0.35 in8.9 mm
07:40 PM 59.9°F15.5°C 51.2°F10.7°C 73% Calm Calm -- 29.98 in1015.2 mb 0.00 in0.0 mm 0.00 in0.0 mm 0.31 in7.9 mm
07:45 PM 59.2°F15.1°C 50.9°F10.5°C 74% 1.6 mph NNE2.6 kmh NNE 1.6 mph2.6 kmh 29.98 in1015.2 mb 0.00 in0.0 mm 0.00 in0.0 mm 0.31 in7.9 mm
07:50 PM 58.8°F14.9°C 50.5°F10.3°C 74% 0.5 mph NNE0.8 kmh NNE 1.6 mph2.6 kmh 29.98 in1015.2 mb 0.00 in0.0 mm 0.00 in0.0 mm 0.31 in7.9 mm
07:55 PM 58.8°F14.9°C 50.9°F10.5°C 75% 0.1 mph NNE0.2 kmh NNE 1.6 mph2.6 kmh 29.99 in1015.6 mb 0.00 in0.0 mm 0.00 in0.0 mm 0.31 in7.9 mm
08:00 PM 58.6°F14.8°C 50.7°F10.4°C 75% Calm Calm -- 29.99 in1015.6 mb 0.00 in0.0 mm 0.00 in0.0 mm 0.31 in7.9 mm
08:05 PM 58.6°F14.8°C 50.7°F10.4°C 75% Calm Calm -- 29.99 in1015.6 mb 0.00 in0.0 mm 0.00 in0.0 mm 0.31 in7.9 mm
08:10 PM 58.5°F14.7°C 50.9°F10.5°C 76% Calm Calm -- 29.99 in1015.6 mb 0.00 in0.0 mm 0.00 in0.0 mm 0.31 in7.9 mm
08:15 PM 58.3°F14.6°C 50.7°F10.4°C 76% Calm Calm -- 30.00 in1015.9 mb 0.00 in0.0 mm 0.00 in0.0 mm 0.31 in7.9 mm
08:20 PM 58.3°F14.6°C 50.7°F10.4°C 76% Calm Calm -- 30.00 in1015.9 mb 0.00 in0.0 mm 0.00 in0.0 mm 0.31 in7.9 mm
08:25 PM 58.3°F14.6°C 50.7°F10.4°C 76% Calm Calm -- 30.00 in1015.9 mb 0.00 in0.0 mm 0.00 in0.0 mm 0.31 in7.9 mm
08:30 PM 58.1°F14.5°C 50.9°F10.5°C 77% 0.3 mph NNW0.5 kmh NNW 0.9 mph1.4 kmh 30.01 in1016.3 mb 0.00 in0.0 mm 0.00 in0.0 mm 0.31 in7.9 mm
08:35 PM 57.9°F14.4°C 50.8°F10.4°C 77% 0.2 mph NNW0.3 kmh NNW 0.9 mph1.4 kmh 30.00 in1015.9 mb 0.00 in0.0 mm 0.00 in0.0 mm 0.31 in7.9 mm
08:37 PM 57.9°F14.4°C 50.8°F10.4°C 77% Calm Calm -- 30.01 in1016.3 mb 0.00 in0.0 mm 0.00 in0.0 mm 0.35 in8.9 mm
08:40 PM 57.9°F14.4°C 50.8°F10.4°C 77% 0.1 mph NNW0.2 kmh NNW 0.9 mph1.4 kmh 30.01 in1016.3 mb 0.00 in0.0 mm 0.00 in0.0 mm 0.31 in7.9 mm
08:45 PM 57.9°F14.4°C 50.8°F10.4°C 77% Calm Calm -- 30.01 in1016.3 mb 0.00 in0.0 mm 0.00 in0.0 mm 0.31 in7.9 mm
08:50 PM 57.7°F14.3°C 50.6°F10.3°C 77% Calm Calm 0.9 mph1.4 kmh 30.01 in1016.3 mb 0.00 in0.0 mm 0.00 in0.0 mm 0.31 in7.9 mm
08:55 PM 57.6°F14.2°C 50.8°F10.4°C 78% 0.2 mph NNE0.3 kmh NNE 0.9 mph1.4 kmh 30.01 in1016.3 mb 0.00 in0.0 mm 0.00 in0.0 mm 0.31 in7.9 mm
09:00 PM 57.6°F14.2°C 50.8°F10.4°C 78% 0.2 mph NNE0.3 kmh NNE 0.9 mph1.4 kmh 30.01 in1016.3 mb 0.00 in0.0 mm 0.00 in0.0 mm 0.31 in7.9 mm
09:05 PM 57.4°F14.1°C 50.6°F10.3°C 78% 0.2 mph NNE0.3 kmh NNE 1.1 mph1.8 kmh 30.01 in1016.3 mb 0.00 in0.0 mm 0.00 in0.0 mm 0.31 in7.9 mm
09:10 PM 57.2°F14.0°C 50.4°F10.2°C 78% 0.4 mph NNE0.6 kmh NNE 1.1 mph1.8 kmh 30.01 in1016.3 mb 0.00 in0.0 mm 0.00 in0.0 mm 0.31 in7.9 mm
09:15 PM 57.0°F13.9°C 50.2°F10.1°C 78% 0.2 mph NNE0.3 kmh NNE 1.1 mph1.8 kmh 30.01 in1016.3 mb 0.00 in0.0 mm 0.00 in0.0 mm 0.31 in7.9 mm
09:20 PM 57.0°F13.9°C 50.2°F10.1°C 78% Calm Calm -- 30.01 in1016.3 mb 0.00 in0.0 mm 0.00 in0.0 mm 0.31 in7.9 mm
09:25 PM 57.0°F13.9°C 50.2°F10.1°C 78% Calm Calm -- 30.02 in1016.6 mb 0.00 in0.0 mm 0.00 in0.0 mm 0.31 in7.9 mm
09:30 PM 57.0°F13.9°C 50.2°F10.1°C 78% Calm Calm -- 30.02 in1016.6 mb 0.00 in0.0 mm 0.00 in0.0 mm 0.31 in7.9 mm
09:35 PM 56.7°F13.7°C 50.2°F10.1°C 79% Calm Calm -- 30.02 in1016.6 mb 0.00 in0.0 mm 0.00 in0.0 mm 0.31 in7.9 mm
09:37 PM 56.7°F13.7°C 50.2°F10.1°C 79% Calm Calm -- 30.02 in1016.6 mb 0.00 in0.0 mm 0.00 in0.0 mm 0.35 in8.9 mm
09:40 PM 56.5°F13.6°C 50.0°F10.0°C 79% Calm Calm -- 30.02 in1016.6 mb 0.00 in0.0 mm 0.00 in0.0 mm 0.31 in7.9 mm
09:45 PM 56.5°F13.6°C 50.0°F10.0°C 79% Calm Calm -- 30.02 in1016.6 mb 0.00 in0.0 mm 0.00 in0.0 mm 0.31 in7.9 mm
09:50 PM 56.5°F13.6°C 50.0°F10.0°C 79% 0.3 mph NNE0.5 kmh NNE 1.3 mph2.1 kmh 30.02 in1016.6 mb 0.00 in0.0 mm 0.00 in0.0 mm 0.31 in7.9 mm
09:55 PM 56.5°F13.6°C 50.0°F10.0°C 79% 0.3 mph NNE0.5 kmh NNE 1.3 mph2.1 kmh 30.02 in1016.6 mb 0.00 in0.0 mm 0.00 in0.0 mm 0.31 in7.9 mm
10:00 PM 56.5°F13.6°C 50.4°F10.2°C 80% 0.2 mph NNE0.3 kmh NNE 1.1 mph1.8 kmh 30.02 in1016.6 mb 0.00 in0.0 mm 0.00 in0.0 mm 0.31 in7.9 mm
10:05 PM 56.5°F13.6°C 50.4°F10.2°C 80% 0.7 mph NNE1.1 kmh NNE 1.1 mph1.8 kmh 30.02 in1016.6 mb 0.00 in0.0 mm 0.00 in0.0 mm 0.31 in7.9 mm
10:10 PM 56.1°F13.4°C 50.0°F10.0°C 80% 0.6 mph NNE1.0 kmh NNE 1.1 mph1.8 kmh 30.03 in1016.9 mb 0.00 in0.0 mm 0.00 in0.0 mm 0.31 in7.9 mm
10:15 PM 55.9°F13.3°C 49.9°F9.9°C 80% 0.3 mph NNE0.5 kmh NNE 1.3 mph2.1 kmh 30.03 in1016.9 mb 0.00 in0.0 mm 0.00 in0.0 mm 0.31 in7.9 mm
10:20 PM 55.9°F13.3°C 49.9°F9.9°C 80% 0.3 mph NNE0.5 kmh NNE 1.3 mph2.1 kmh 30.02 in1016.6 mb 0.00 in0.0 mm 0.00 in0.0 mm 0.31 in7.9 mm
10:25 PM 55.8°F13.2°C 49.7°F9.8°C 80% 0.1 mph NNE0.2 kmh NNE 1.6 mph2.6 kmh 30.02 in1016.6 mb 0.00 in0.0 mm 0.00 in0.0 mm 0.31 in7.9 mm
10:30 PM 55.8°F13.2°C 49.7°F9.8°C 80% 0.5 mph NNE0.8 kmh NNE 1.6 mph2.6 kmh 30.02 in1016.6 mb 0.00 in0.0 mm 0.00 in0.0 mm 0.31 in7.9 mm
10:35 PM 55.8°F13.2°C 50.0°F10.0°C 81% 0.8 mph N1.3 kmh N 1.6 mph2.6 kmh 30.02 in1016.6 mb 0.00 in0.0 mm 0.00 in0.0 mm 0.31 in7.9 mm
10:37 PM 55.8°F13.2°C 50.0°F10.0°C 81% 0.9 mph N1.4 kmh N 0.9 mph1.4 kmh 30.02 in1016.6 mb 0.00 in0.0 mm 0.00 in0.0 mm 0.35 in8.9 mm
10:40 PM 55.8°F13.2°C 50.0°F10.0°C 81% 0.9 mph N1.4 kmh N 0.9 mph1.4 kmh 30.02 in1016.6 mb 0.00 in0.0 mm 0.00 in0.0 mm 0.31 in7.9 mm
10:45 PM 55.4°F13.0°C 49.7°F9.8°C 81% 0.6 mph N1.0 kmh N 0.9 mph1.4 kmh 30.02 in1016.6 mb 0.00 in0.0 mm 0.00 in0.0 mm 0.31 in7.9 mm
10:50 PM 55.4°F13.0°C 49.7°F9.8°C 81% 0.1 mph N0.2 kmh N 0.9 mph1.4 kmh 30.02 in1016.6 mb 0.00 in0.0 mm 0.00 in0.0 mm 0.31 in7.9 mm
10:55 PM 55.2°F12.9°C 49.5°F9.7°C 81% Calm Calm -- 30.02 in1016.6 mb 0.00 in0.0 mm 0.00 in0.0 mm 0.31 in7.9 mm
11:00 PM 55.2°F12.9°C 49.5°F9.7°C 81% Calm Calm -- 30.03 in1016.9 mb 0.00 in0.0 mm 0.00 in0.0 mm 0.31 in7.9 mm
11:05 PM 55.2°F12.9°C 49.5°F9.7°C 81% 0.4 mph NNE0.6 kmh NNE 1.1 mph1.8 kmh 30.03 in1016.9 mb 0.00 in0.0 mm 0.00 in0.0 mm 0.31 in7.9 mm
11:10 PM 55.2°F12.9°C 49.5°F9.7°C 81% 0.5 mph NNE0.8 kmh NNE 1.1 mph1.8 kmh 30.03 in1016.9 mb 0.00 in0.0 mm 0.00 in0.0 mm 0.31 in7.9 mm
11:15 PM 55.2°F12.9°C 49.5°F9.7°C 81% 0.1 mph NNE0.2 kmh NNE 0.9 mph1.4 kmh 30.03 in1016.9 mb 0.00 in0.0 mm 0.00 in0.0 mm 0.31 in7.9 mm
11:20 PM 55.2°F12.9°C 49.5°F9.7°C 81% Calm Calm -- 30.03 in1016.9 mb 0.00 in0.0 mm 0.00 in0.0 mm 0.31 in7.9 mm
11:25 PM 55.0°F12.8°C 49.3°F9.6°C 81% Calm Calm -- 30.03 in1016.9 mb 0.00 in0.0 mm 0.00 in0.0 mm 0.31 in7.9 mm
11:30 PM 55.2°F12.9°C 49.5°F9.7°C 81% 0.3 mph SW0.5 kmh SW 1.6 mph2.6 kmh 30.03 in1016.9 mb 0.00 in0.0 mm 0.00 in0.0 mm 0.31 in7.9 mm
11:35 PM 55.2°F12.9°C 49.8°F9.9°C 82% 0.3 mph SW0.5 kmh SW 1.6 mph2.6 kmh 30.02 in1016.6 mb 0.00 in0.0 mm 0.00 in0.0 mm 0.31 in7.9 mm
11:37 PM 55.2°F12.9°C 49.8°F9.9°C 82% Calm Calm -- 30.03 in1016.9 mb 0.00 in0.0 mm 0.00 in0.0 mm 0.31 in7.9 mm
11:40 PM 55.2°F12.9°C 49.8°F9.9°C 82% Calm Calm -- 30.03 in1016.9 mb 0.00 in0.0 mm 0.00 in0.0 mm 0.31 in7.9 mm
11:45 PM 55.2°F12.9°C 49.8°F9.9°C 82% Calm Calm -- 30.03 in1016.9 mb 0.00 in0.0 mm 0.00 in0.0 mm 0.31 in7.9 mm
11:50 PM 55.0°F12.8°C 49.6°F9.8°C 82% Calm Calm -- 30.03 in1016.9 mb 0.00 in0.0 mm 0.00 in0.0 mm 0.31 in7.9 mm
11:55 PM 55.0°F12.8°C 49.6°F9.8°C 82% Calm Calm -- 30.03 in1016.9 mb 0.00 in0.0 mm 0.00 in0.0 mm 0.31 in7.9 mm